sensor_id;sensor_type;location;lat;lon;timestamp;pressure;altitude;pressure_sealevel;temperature;humidity
14393;BME280;7281;42.678;23.372;2023-02-10T00:01:32;96895.53;;;0.99;36.02
14393;BME280;7281;42.678;23.372;2023-02-10T00:03:59;96917.72;;;1.10;35.73
14393;BME280;7281;42.678;23.372;2023-02-10T00:06:26;96925.03;;;1.15;35.62
14393;BME280;7281;42.678;23.372;2023-02-10T00:08:58;96919.34;;;1.29;35.75
14393;BME280;7281;42.678;23.372;2023-02-10T00:11:27;96915.75;;;1.22;36.04
14393;BME280;7281;42.678;23.372;2023-02-10T00:14:14;96915.16;;;1.28;35.32
14393;BME280;7281;42.678;23.372;2023-02-10T00:16:41;96910.88;;;1.19;35.48
14393;BME280;7281;42.678;23.372;2023-02-10T00:19:08;96902.22;;;1.10;35.93
14393;BME280;7281;42.678;23.372;2023-02-10T00:21:35;96911.75;;;1.10;35.83
14393;BME280;7281;42.678;23.372;2023-02-10T00:24:03;96923.34;;;1.06;35.43
14393;BME280;7281;42.678;23.372;2023-02-10T00:26:29;96914.47;;;0.90;35.88
14393;BME280;7281;42.678;23.372;2023-02-10T00:28:56;96911.91;;;0.90;35.56
14393;BME280;7281;42.678;23.372;2023-02-10T00:31:23;96901.13;;;0.77;35.94
14393;BME280;7281;42.678;23.372;2023-02-10T00:33:50;96909.31;;;0.73;36.02
14393;BME280;7281;42.678;23.372;2023-02-10T00:36:17;96905.97;;;0.80;36.11
14393;BME280;7281;42.678;23.372;2023-02-10T00:38:44;96886.72;;;0.75;35.59
14393;BME280;7281;42.678;23.372;2023-02-10T00:41:14;96904.06;;;0.82;35.64
14393;BME280;7281;42.678;23.372;2023-02-10T00:43:41;96891.38;;;0.71;36.40
14393;BME280;7281;42.678;23.372;2023-02-10T00:46:12;96902.16;;;0.84;36.46
14393;BME280;7281;42.678;23.372;2023-02-10T00:48:42;96891.38;;;0.71;36.50
14393;BME280;7281;42.678;23.372;2023-02-10T00:51:11;96888.72;;;0.63;36.17
14393;BME280;7281;42.678;23.372;2023-02-10T00:53:38;96882.88;;;0.44;36.75
14393;BME280;7281;42.678;23.372;2023-02-10T00:56:05;96880.94;;;0.46;36.67
14393;BME280;7281;42.678;23.372;2023-02-10T00:58:33;96872.88;;;0.58;36.17
14393;BME280;7281;42.678;23.372;2023-02-10T01:01:01;96885.69;;;0.50;37.12
14393;BME280;7281;42.678;23.372;2023-02-10T01:03:29;96876.59;;;0.46;37.22
14393;BME280;7281;42.678;23.372;2023-02-10T01:05:56;96888.09;;;0.52;36.76
14393;BME280;7281;42.678;23.372;2023-02-10T01:08:23;96881.50;;;0.49;36.78
14393;BME280;7281;42.678;23.372;2023-02-10T01:11:01;96885.69;;;0.68;36.82
14393;BME280;7281;42.678;23.372;2023-02-10T01:13:29;96881.50;;;0.49;36.88
14393;BME280;7281;42.678;23.372;2023-02-10T01:15:56;96871.59;;;0.45;37.34
14393;BME280;7281;42.678;23.372;2023-02-10T01:18:23;96867.94;;;0.47;36.79
14393;BME280;7281;42.678;23.372;2023-02-10T01:20:50;96873.75;;;0.49;36.47
14393;BME280;7281;42.678;23.372;2023-02-10T01:23:17;96861.25;;;0.27;36.75
14393;BME280;7281;42.678;23.372;2023-02-10T01:25:44;96875.38;;;0.50;37.22
14393;BME280;7281;42.678;23.372;2023-02-10T01:28:12;96868.66;;;0.57;36.94
14393;BME280;7281;42.678;23.372;2023-02-10T01:30:39;96856.28;;;0.43;36.56
14393;BME280;7281;42.678;23.372;2023-02-10T01:33:05;96855.16;;;0.46;37.01
14393;BME280;7281;42.678;23.372;2023-02-10T01:35:32;96860.03;;;0.49;37.12
14393;BME280;7281;42.678;23.372;2023-02-10T01:37:59;96861.69;;;0.40;36.66
14393;BME280;7281;42.678;23.372;2023-02-10T01:40:26;96862.56;;;0.31;36.82
14393;BME280;7281;42.678;23.372;2023-02-10T01:42:53;96852.91;;;0.33;36.83
14393;BME280;7281;42.678;23.372;2023-02-10T01:45:34;96866.28;;;0.46;36.50
14393;BME280;7281;42.678;23.372;2023-02-10T01:48:02;96852.56;;;0.28;36.64
14393;BME280;7281;42.678;23.372;2023-02-10T01:50:33;96861.69;;;0.40;36.42
14393;BME280;7281;42.678;23.372;2023-02-10T01:53:04;96852.59;;;0.19;37.02
14393;BME280;7281;42.678;23.372;2023-02-10T01:55:33;96854.56;;;0.07;36.72
14393;BME280;7281;42.678;23.372;2023-02-10T01:58:05;96833.13;;;0.07;36.87
14393;BME280;7281;42.678;23.372;2023-02-10T02:00:33;96845.38;;;0.22;36.26
14393;BME280;7281;42.678;23.372;2023-02-10T02:03:00;96844.44;;;0.23;36.27
14393;BME280;7281;42.678;23.372;2023-02-10T02:05:34;96840.72;;;0.08;36.58
14393;BME280;7281;42.678;23.372;2023-02-10T02:08:06;96835.06;;;-0.32;36.85
14393;BME280;7281;42.678;23.372;2023-02-10T02:16:58;96833.19;;;-0.03;36.06
14393;BME280;7281;42.678;23.372;2023-02-10T02:36:25;96812.84;;;-0.06;36.44
14393;BME280;7281;42.678;23.372;2023-02-10T02:39:02;96818.09;;;0.02;37.06
14393;BME280;7281;42.678;23.372;2023-02-10T02:41:31;96819.13;;;-0.18;37.12
14393;BME280;7281;42.678;23.372;2023-02-10T02:43:59;96818.00;;;-0.06;37.18
14393;BME280;7281;42.678;23.372;2023-02-10T02:52:11;96818.84;;;-0.06;37.57
14393;BME280;7281;42.678;23.372;2023-02-10T02:54:56;96803.47;;;-0.34;37.96
14393;BME280;7281;42.678;23.372;2023-02-10T02:57:40;96820.66;;;-0.25;38.11
14393;BME280;7281;42.678;23.372;2023-02-10T03:00:18;96824.66;;;-0.40;38.00
14393;BME280;7281;42.678;23.372;2023-02-10T03:02:47;96816.94;;;-0.40;38.08
14393;BME280;7281;42.678;23.372;2023-02-10T03:05:21;96807.47;;;-0.49;37.93
14393;BME280;7281;42.678;23.372;2023-02-10T03:07:50;96814.38;;;-0.40;37.46
14393;BME280;7281;42.678;23.372;2023-02-10T03:10:17;96816.81;;;-0.48;38.01
14393;BME280;7281;42.678;23.372;2023-02-10T03:12:44;96818.56;;;-0.39;38.03
14393;BME280;7281;42.678;23.372;2023-02-10T03:15:11;96814.50;;;-0.42;38.11
14393;BME280;7281;42.678;23.372;2023-02-10T03:17:38;96819.78;;;-0.43;38.48
14393;BME280;7281;42.678;23.372;2023-02-10T03:20:05;96808.13;;;-0.47;37.88
14393;BME280;7281;42.678;23.372;2023-02-10T03:22:32;96820.06;;;-0.46;38.14
14393;BME280;7281;42.678;23.372;2023-02-10T03:25:05;96799.66;;;-0.57;38.04
14393;BME280;7281;42.678;23.372;2023-02-10T03:27:32;96820.91;;;-0.55;37.84
14393;BME280;7281;42.678;23.372;2023-02-10T03:29:58;96824.34;;;-0.64;38.36
14393;BME280;7281;42.678;23.372;2023-02-10T03:32:25;96823.28;;;-0.90;38.45
14393;BME280;7281;42.678;23.372;2023-02-10T03:34:52;96823.13;;;-0.70;38.06
14393;BME280;7281;42.678;23.372;2023-02-10T03:37:19;96820.94;;;-0.74;38.35
14393;BME280;7281;42.678;23.372;2023-02-10T03:39:46;96828.50;;;-0.63;38.37
14393;BME280;7281;42.678;23.372;2023-02-10T03:42:13;96811.72;;;-0.67;38.27
14393;BME280;7281;42.678;23.372;2023-02-10T03:44:40;96815.41;;;-0.79;38.40
14393;BME280;7281;42.678;23.372;2023-02-10T03:47:07;96803.78;;;-0.83;38.62
14393;BME280;7281;42.678;23.372;2023-02-10T03:49:34;96780.25;;;-1.08;38.25
14393;BME280;7281;42.678;23.372;2023-02-10T03:52:01;96785.22;;;-0.87;38.27
14393;BME280;7281;42.678;23.372;2023-02-10T03:54:27;96807.56;;;-0.78;38.42
14393;BME280;7281;42.678;23.372;2023-02-10T03:56:55;96796.84;;;-0.73;37.94
14393;BME280;7281;42.678;23.372;2023-02-10T03:59:23;96804.72;;;-0.84;38.29
14393;BME280;7281;42.678;23.372;2023-02-10T04:01:50;96791.47;;;-0.89;38.65
14393;BME280;7281;42.678;23.372;2023-02-10T04:04:17;96785.25;;;-0.96;38.67
14393;BME280;7281;42.678;23.372;2023-02-10T04:06:44;96782.50;;;-0.85;38.56
14393;BME280;7281;42.678;23.372;2023-02-10T04:09:11;96784.59;;;-1.18;38.84
14393;BME280;7281;42.678;23.372;2023-02-10T04:11:37;96777.41;;;-1.05;39.04
14393;BME280;7281;42.678;23.372;2023-02-10T04:14:04;96792.53;;;-0.82;38.33
14393;BME280;7281;42.678;23.372;2023-02-10T04:16:31;96796.63;;;-0.89;38.96
14393;BME280;7281;42.678;23.372;2023-02-10T04:18:58;96799.59;;;-0.84;38.72
14393;BME280;7281;42.678;23.372;2023-02-10T04:21:25;96793.78;;;-0.96;38.36
14393;BME280;7281;42.678;23.372;2023-02-10T04:23:52;96793.66;;;-1.04;38.79
14393;BME280;7281;42.678;23.372;2023-02-10T04:26:19;96796.88;;;-0.92;38.66
14393;BME280;7281;42.678;23.372;2023-02-10T04:28:46;96798.81;;;-1.14;38.66
14393;BME280;7281;42.678;23.372;2023-02-10T04:31:13;96779.84;;;-1.13;38.70
14393;BME280;7281;42.678;23.372;2023-02-10T04:33:40;96804.50;;;-1.20;38.76
14393;BME280;7281;42.678;23.372;2023-02-10T04:36:07;96795.03;;;-1.10;38.63
14393;BME280;7281;42.678;23.372;2023-02-10T04:38:34;96791.63;;;-1.10;38.97
14393;BME280;7281;42.678;23.372;2023-02-10T04:41:01;96805.84;;;-1.06;38.73
14393;BME280;7281;42.678;23.372;2023-02-10T04:43:31;96787.41;;;-1.02;38.59
14393;BME280;7281;42.678;23.372;2023-02-10T04:45:58;96809.66;;;-1.39;39.00
14393;BME280;7281;42.678;23.372;2023-02-10T04:48:25;96812.34;;;-1.31;39.25
14393;BME280;7281;42.678;23.372;2023-02-10T04:50:52;96810.19;;;-1.16;38.51
14393;BME280;7281;42.678;23.372;2023-02-10T04:53:20;96808.56;;;-1.27;39.10
14393;BME280;7281;42.678;23.372;2023-02-10T04:55:46;96813.72;;;-1.27;39.34
14393;BME280;7281;42.678;23.372;2023-02-10T04:58:14;96804.63;;;-1.40;39.28
14393;BME280;7281;42.678;23.372;2023-02-10T05:00:41;96805.06;;;-1.45;39.31
14393;BME280;7281;42.678;23.372;2023-02-10T05:03:07;96799.25;;;-1.37;39.12
14393;BME280;7281;42.678;23.372;2023-02-10T05:05:34;96803.16;;;-1.43;39.19
14393;BME280;7281;42.678;23.372;2023-02-10T05:08:01;96819.66;;;-1.17;39.17
14393;BME280;7281;42.678;23.372;2023-02-10T05:10:28;96824.25;;;-1.49;39.50
14393;BME280;7281;42.678;23.372;2023-02-10T05:12:55;96816.16;;;-1.44;39.17
14393;BME280;7281;42.678;23.372;2023-02-10T05:15:22;96803.97;;;-1.52;39.46
14393;BME280;7281;42.678;23.372;2023-02-10T05:17:49;96824.41;;;-1.41;39.51
14393;BME280;7281;42.678;23.372;2023-02-10T05:20:16;96834.28;;;-1.36;39.18
14393;BME280;7281;42.678;23.372;2023-02-10T05:22:43;96840.66;;;-1.50;39.17
14393;BME280;7281;42.678;23.372;2023-02-10T05:25:11;96855.78;;;-1.47;39.57
14393;BME280;7281;42.678;23.372;2023-02-10T05:27:38;96850.78;;;-1.58;39.44
14393;BME280;7281;42.678;23.372;2023-02-10T05:30:06;96852.94;;;-1.63;39.52
14393;BME280;7281;42.678;23.372;2023-02-10T05:32:35;96867.28;;;-1.70;39.84
14393;BME280;7281;42.678;23.372;2023-02-10T05:35:02;96872.63;;;-1.82;40.03
14393;BME280;7281;42.678;23.372;2023-02-10T05:37:29;96858.19;;;-1.74;39.74
14393;BME280;7281;42.678;23.372;2023-02-10T05:39:56;96864.91;;;-1.92;39.96
14393;BME280;7281;42.678;23.372;2023-02-10T05:42:23;96874.09;;;-1.99;40.98
14393;BME280;7281;42.678;23.372;2023-02-10T05:44:50;96866.47;;;-1.61;40.34
14393;BME280;7281;42.678;23.372;2023-02-10T05:47:17;96878.94;;;-1.28;40.37
14393;BME280;7281;42.678;23.372;2023-02-10T05:49:44;96880.03;;;-1.30;39.37
14393;BME280;7281;42.678;23.372;2023-02-10T05:52:12;61859.38;;;-140.05;100.00
14393;BME280;7281;42.678;23.372;2023-02-10T05:54:39;61859.38;;;-140.05;100.00
14393;BME280;7281;42.678;23.372;2023-02-10T05:57:07;61859.38;;;-140.05;100.00
14393;BME280;7281;42.678;23.372;2023-02-10T05:59:34;61859.38;;;-140.05;100.00
14393;BME280;7281;42.678;23.372;2023-02-10T06:02:00;61859.38;;;-140.05;100.00
14393;BME280;7281;42.678;23.372;2023-02-10T06:04:28;61859.38;;;-140.05;100.00
14393;BME280;7281;42.678;23.372;2023-02-10T06:06:55;61859.38;;;-140.05;100.00
14393;BME280;7281;42.678;23.372;2023-02-10T06:09:22;61859.38;;;-140.05;100.00
14393;BME280;7281;42.678;23.372;2023-02-10T06:11:50;61859.38;;;-140.05;100.00
14393;BME280;7281;42.678;23.372;2023-02-10T06:14:18;61859.38;;;-140.05;100.00
14393;BME280;7281;42.678;23.372;2023-02-10T06:16:46;61859.38;;;-140.05;100.00
14393;BME280;7281;42.678;23.372;2023-02-10T06:19:13;61859.38;;;-140.05;100.00
14393;BME280;7281;42.678;23.372;2023-02-10T06:21:40;61859.38;;;-140.05;100.00
14393;BME280;7281;42.678;23.372;2023-02-10T06:24:06;61859.38;;;-140.05;100.00
14393;BME280;7281;42.678;23.372;2023-02-10T06:26:33;61859.38;;;-140.05;100.00
14393;BME280;7281;42.678;23.372;2023-02-10T06:29:00;61859.38;;;-140.05;100.00
14393;BME280;7281;42.678;23.372;2023-02-10T06:31:28;61859.38;;;-140.05;100.00
14393;BME280;7281;42.678;23.372;2023-02-10T06:33:55;61859.38;;;-140.05;100.00
14393;BME280;7281;42.678;23.372;2023-02-10T06:36:22;61859.38;;;-140.05;100.00
14393;BME280;7281;42.678;23.372;2023-02-10T06:38:49;61859.38;;;-140.05;100.00
14393;BME280;7281;42.678;23.372;2023-02-10T06:41:16;61859.38;;;-140.05;100.00
14393;BME280;7281;42.678;23.372;2023-02-10T06:43:43;61859.38;;;-140.05;100.00
14393;BME280;7281;42.678;23.372;2023-02-10T06:46:09;61859.38;;;-140.05;100.00
14393;BME280;7281;42.678;23.372;2023-02-10T06:48:39;61859.38;;;-140.05;100.00
14393;BME280;7281;42.678;23.372;2023-02-10T06:51:06;61859.38;;;-140.05;100.00
14393;BME280;7281;42.678;23.372;2023-02-10T06:53:34;61859.38;;;-140.05;100.00
14393;BME280;7281;42.678;23.372;2023-02-10T06:56:05;61859.38;;;-140.05;100.00
14393;BME280;7281;42.678;23.372;2023-02-10T06:58:32;61859.38;;;-140.05;100.00
14393;BME280;7281;42.678;23.372;2023-02-10T07:00:59;61859.38;;;-140.05;100.00
14393;BME280;7281;42.678;23.372;2023-02-10T07:03:28;61859.38;;;-140.05;100.00
14393;BME280;7281;42.678;23.372;2023-02-10T07:05:55;61859.38;;;-140.05;100.00
14393;BME280;7281;42.678;23.372;2023-02-10T07:08:21;61859.38;;;-140.05;100.00
14393;BME280;7281;42.678;23.372;2023-02-10T07:10:48;61859.38;;;-140.05;100.00
14393;BME280;7281;42.678;23.372;2023-02-10T07:13:16;61859.38;;;-140.05;100.00
14393;BME280;7281;42.678;23.372;2023-02-10T07:15:43;61859.38;;;-140.05;100.00
14393;BME280;7281;42.678;23.372;2023-02-10T07:18:10;61859.38;;;-140.05;100.00
14393;BME280;7281;42.678;23.372;2023-02-10T07:20:37;61859.38;;;-140.05;100.00
14393;BME280;7281;42.678;23.372;2023-02-10T07:23:04;61859.38;;;-140.05;100.00
14393;BME280;7281;42.678;23.372;2023-02-10T07:25:30;61859.38;;;-140.05;100.00
14393;BME280;7281;42.678;23.372;2023-02-10T07:27:57;61859.38;;;-140.05;100.00
14393;BME280;7281;42.678;23.372;2023-02-10T07:30:25;61859.38;;;-140.05;100.00
14393;BME280;7281;42.678;23.372;2023-02-10T07:32:52;61859.38;;;-140.05;100.00
14393;BME280;7281;42.678;23.372;2023-02-10T07:35:18;61859.38;;;-140.05;100.00
14393;BME280;7281;42.678;23.372;2023-02-10T07:37:48;61859.38;;;-140.05;100.00
14393;BME280;7281;42.678;23.372;2023-02-10T07:40:15;61859.38;;;-140.05;100.00
14393;BME280;7281;42.678;23.372;2023-02-10T07:42:42;61859.38;;;-140.05;100.00
14393;BME280;7281;42.678;23.372;2023-02-10T07:45:22;61859.38;;;-140.05;100.00
14393;BME280;7281;42.678;23.372;2023-02-10T07:47:49;61859.38;;;-140.05;100.00
14393;BME280;7281;42.678;23.372;2023-02-10T07:50:16;61859.38;;;-140.05;100.00
14393;BME280;7281;42.678;23.372;2023-02-10T07:52:43;61859.38;;;-140.05;100.00
14393;BME280;7281;42.678;23.372;2023-02-10T07:55:10;61859.38;;;-140.05;100.00
14393;BME280;7281;42.678;23.372;2023-02-10T07:57:37;61859.38;;;-140.05;100.00
14393;BME280;7281;42.678;23.372;2023-02-10T08:00:07;61859.38;;;-140.05;100.00
14393;BME280;7281;42.678;23.372;2023-02-10T08:02:38;61859.38;;;-140.05;100.00
14393;BME280;7281;42.678;23.372;2023-02-10T08:05:05;61859.38;;;-140.05;100.00
14393;BME280;7281;42.678;23.372;2023-02-10T08:07:33;61859.38;;;-140.05;100.00
14393;BME280;7281;42.678;23.372;2023-02-10T08:10:00;61859.38;;;-140.05;100.00
14393;BME280;7281;42.678;23.372;2023-02-10T08:12:27;61859.38;;;-140.05;100.00
14393;BME280;7281;42.678;23.372;2023-02-10T08:14:53;61859.38;;;-140.05;100.00
14393;BME280;7281;42.678;23.372;2023-02-10T08:17:20;61859.38;;;-140.05;100.00
14393;BME280;7281;42.678;23.372;2023-02-10T08:19:48;61859.38;;;-140.05;100.00
14393;BME280;7281;42.678;23.372;2023-02-10T08:22:15;61859.38;;;-140.05;100.00
14393;BME280;7281;42.678;23.372;2023-02-10T08:24:42;61859.38;;;-140.05;100.00
14393;BME280;7281;42.678;23.372;2023-02-10T08:27:09;61859.38;;;-140.05;100.00
14393;BME280;7281;42.678;23.372;2023-02-10T08:29:38;61859.38;;;-140.05;100.00
14393;BME280;7281;42.678;23.372;2023-02-10T08:32:05;61859.38;;;-140.05;100.00
14393;BME280;7281;42.678;23.372;2023-02-10T08:34:31;61859.38;;;-140.05;100.00
14393;BME280;7281;42.678;23.372;2023-02-10T08:36:59;61859.38;;;-140.05;100.00
14393;BME280;7281;42.678;23.372;2023-02-10T08:39:28;61859.38;;;-140.05;100.00
14393;BME280;7281;42.678;23.372;2023-02-10T08:41:55;61859.38;;;-140.05;100.00
14393;BME280;7281;42.678;23.372;2023-02-10T08:44:22;61859.38;;;-140.05;100.00
14393;BME280;7281;42.678;23.372;2023-02-10T08:46:49;61859.38;;;-140.05;100.00
14393;BME280;7281;42.678;23.372;2023-02-10T08:49:15;61859.38;;;-140.05;100.00
14393;BME280;7281;42.678;23.372;2023-02-10T08:51:42;61859.38;;;-140.05;100.00
14393;BME280;7281;42.678;23.372;2023-02-10T08:54:09;61859.38;;;-140.05;100.00
14393;BME280;7281;42.678;23.372;2023-02-10T08:56:36;61859.38;;;-140.05;100.00
14393;BME280;7281;42.678;23.372;2023-02-10T08:59:03;61859.38;;;-140.05;100.00
14393;BME280;7281;42.678;23.372;2023-02-10T09:01:30;61859.38;;;-140.05;100.00
14393;BME280;7281;42.678;23.372;2023-02-10T09:03:57;61859.38;;;-140.05;100.00
14393;BME280;7281;42.678;23.372;2023-02-10T09:06:27;61859.38;;;-140.05;100.00
14393;BME280;7281;42.678;23.372;2023-02-10T09:08:54;61859.38;;;-140.05;100.00
14393;BME280;7281;42.678;23.372;2023-02-10T09:11:22;61859.38;;;-140.05;100.00
14393;BME280;7281;42.678;23.372;2023-02-10T09:13:51;61859.38;;;-140.05;100.00
14393;BME280;7281;42.678;23.372;2023-02-10T09:16:18;61859.38;;;-140.05;100.00
14393;BME280;7281;42.678;23.372;2023-02-10T09:18:45;61859.38;;;-140.05;100.00
14393;BME280;7281;42.678;23.372;2023-02-10T09:21:12;61859.38;;;-140.05;100.00
14393;BME280;7281;42.678;23.372;2023-02-10T09:23:39;61859.38;;;-140.05;100.00
14393;BME280;7281;42.678;23.372;2023-02-10T09:26:06;61859.38;;;-140.05;100.00
14393;BME280;7281;42.678;23.372;2023-02-10T09:28:33;61859.38;;;-140.05;100.00
14393;BME280;7281;42.678;23.372;2023-02-10T09:31:00;61859.38;;;-140.05;100.00
14393;BME280;7281;42.678;23.372;2023-02-10T09:33:30;61859.38;;;-140.05;100.00
14393;BME280;7281;42.678;23.372;2023-02-10T09:35:56;61859.38;;;-140.05;100.00
14393;BME280;7281;42.678;23.372;2023-02-10T09:38:24;61859.38;;;-140.05;100.00
14393;BME280;7281;42.678;23.372;2023-02-10T09:41:09;61859.38;;;-140.05;100.00
14393;BME280;7281;42.678;23.372;2023-02-10T09:54:39;61859.38;;;-140.05;100.00
14393;BME280;7281;42.678;23.372;2023-02-10T09:57:34;61859.38;;;-140.05;100.00
14393;BME280;7281;42.678;23.372;2023-02-10T10:00:05;61859.38;;;-140.05;100.00
14393;BME280;7281;42.678;23.372;2023-02-10T10:02:45;61859.38;;;-140.05;100.00
14393;BME280;7281;42.678;23.372;2023-02-10T10:05:22;61859.38;;;-140.05;100.00
14393;BME280;7281;42.678;23.372;2023-02-10T10:07:53;61859.38;;;-140.05;100.00
14393;BME280;7281;42.678;23.372;2023-02-10T10:10:36;61859.38;;;-140.05;100.00
14393;BME280;7281;42.678;23.372;2023-02-10T10:13:27;61859.38;;;-140.05;100.00
14393;BME280;7281;42.678;23.372;2023-02-10T10:19:02;61859.38;;;-140.05;100.00
14393;BME280;7281;42.678;23.372;2023-02-10T10:21:40;61859.38;;;-140.05;100.00
14393;BME280;7281;42.678;23.372;2023-02-10T10:24:38;61859.38;;;-140.05;100.00
14393;BME280;7281;42.678;23.372;2023-02-10T10:29:55;61859.38;;;-140.05;100.00
14393;BME280;7281;42.678;23.372;2023-02-10T10:32:47;61859.38;;;-140.05;100.00
14393;BME280;7281;42.678;23.372;2023-02-10T10:35:25;61859.38;;;-140.05;100.00
14393;BME280;7281;42.678;23.372;2023-02-10T10:37:54;61859.38;;;-140.05;100.00
14393;BME280;7281;42.678;23.372;2023-02-10T10:40:30;61859.38;;;-140.05;100.00
14393;BME280;7281;42.678;23.372;2023-02-10T10:42:59;61859.38;;;-140.05;100.00
14393;BME280;7281;42.678;23.372;2023-02-10T10:45:36;61859.38;;;-140.05;100.00
14393;BME280;7281;42.678;23.372;2023-02-10T10:48:19;61859.38;;;-140.05;100.00
14393;BME280;7281;42.678;23.372;2023-02-10T10:50:54;61859.38;;;-140.05;100.00
14393;BME280;7281;42.678;23.372;2023-02-10T10:56:00;61859.38;;;-140.05;100.00
14393;BME280;7281;42.678;23.372;2023-02-10T10:58:39;61859.38;;;-140.05;100.00
14393;BME280;7281;42.678;23.372;2023-02-10T11:01:07;61859.38;;;-140.05;100.00
14393;BME280;7281;42.678;23.372;2023-02-10T11:03:34;61859.38;;;-140.05;100.00
14393;BME280;7281;42.678;23.372;2023-02-10T11:06:14;61859.38;;;-140.05;100.00
14393;BME280;7281;42.678;23.372;2023-02-10T11:08:52;61859.38;;;-140.05;100.00
14393;BME280;7281;42.678;23.372;2023-02-10T11:11:35;61859.38;;;-140.05;100.00
14393;BME280;7281;42.678;23.372;2023-02-10T11:14:16;61859.38;;;-140.05;100.00
14393;BME280;7281;42.678;23.372;2023-02-10T11:16:50;61859.38;;;-140.05;100.00
14393;BME280;7281;42.678;23.372;2023-02-10T11:19:24;61859.38;;;-140.05;100.00
14393;BME280;7281;42.678;23.372;2023-02-10T11:21:52;61859.38;;;-140.05;100.00
14393;BME280;7281;42.678;23.372;2023-02-10T11:24:25;61859.38;;;-140.05;100.00
14393;BME280;7281;42.678;23.372;2023-02-10T11:27:05;61859.38;;;-140.05;100.00
14393;BME280;7281;42.678;23.372;2023-02-10T11:29:35;61859.38;;;-140.05;100.00
14393;BME280;7281;42.678;23.372;2023-02-10T11:32:21;61859.38;;;-140.05;100.00
14393;BME280;7281;42.678;23.372;2023-02-10T11:34:51;61859.38;;;-140.05;100.00
14393;BME280;7281;42.678;23.372;2023-02-10T11:37:38;61859.38;;;-140.05;100.00
14393;BME280;7281;42.678;23.372;2023-02-10T11:42:50;61859.38;;;-140.05;100.00
14393;BME280;7281;42.678;23.372;2023-02-10T11:45:20;61859.38;;;-140.05;100.00
14393;BME280;7281;42.678;23.372;2023-02-10T11:48:17;61859.38;;;-140.05;100.00
14393;BME280;7281;42.678;23.372;2023-02-10T11:50:45;61859.38;;;-140.05;100.00
14393;BME280;7281;42.678;23.372;2023-02-10T11:53:27;61859.38;;;-140.05;100.00
14393;BME280;7281;42.678;23.372;2023-02-10T11:56:01;61859.38;;;-140.05;100.00
14393;BME280;7281;42.678;23.372;2023-02-10T11:58:53;61859.38;;;-140.05;100.00
14393;BME280;7281;42.678;23.372;2023-02-10T12:01:48;61859.38;;;-140.05;100.00
14393;BME280;7281;42.678;23.372;2023-02-10T12:04:41;61859.38;;;-140.05;100.00
14393;BME280;7281;42.678;23.372;2023-02-10T12:13:55;61859.38;;;-140.05;100.00
14393;BME280;7281;42.678;23.372;2023-02-10T12:19:49;61859.38;;;-140.05;100.00
14393;BME280;7281;42.678;23.372;2023-02-10T12:28:14;61859.38;;;-140.05;100.00
14393;BME280;7281;42.678;23.372;2023-02-10T12:40:33;61859.38;;;-140.05;100.00
14393;BME280;7281;42.678;23.372;2023-02-10T12:46:24;61859.38;;;-140.05;100.00
14393;BME280;7281;42.678;23.372;2023-02-10T12:49:02;61859.38;;;-140.05;100.00
14393;BME280;7281;42.678;23.372;2023-02-10T12:51:45;61859.38;;;-140.05;100.00
14393;BME280;7281;42.678;23.372;2023-02-10T12:54:22;61859.38;;;-140.05;100.00
14393;BME280;7281;42.678;23.372;2023-02-10T12:57:12;61859.38;;;-140.05;100.00
14393;BME280;7281;42.678;23.372;2023-02-10T13:02:24;61859.38;;;-140.05;100.00
14393;BME280;7281;42.678;23.372;2023-02-10T13:04:56;61859.38;;;-140.05;100.00
14393;BME280;7281;42.678;23.372;2023-02-10T13:07:44;61859.38;;;-140.05;100.00
14393;BME280;7281;42.678;23.372;2023-02-10T13:12:47;61859.38;;;-140.05;100.00
14393;BME280;7281;42.678;23.372;2023-02-10T13:17:53;61859.38;;;-140.05;100.00
14393;BME280;7281;42.678;23.372;2023-02-10T13:20:33;61859.38;;;-140.05;100.00
14393;BME280;7281;42.678;23.372;2023-02-10T13:23:24;61859.38;;;-140.05;100.00
14393;BME280;7281;42.678;23.372;2023-02-10T13:28:43;61859.38;;;-140.05;100.00
14393;BME280;7281;42.678;23.372;2023-02-10T13:34:11;61859.38;;;-140.05;100.00
14393;BME280;7281;42.678;23.372;2023-02-10T13:36:42;61859.38;;;-140.05;100.00
14393;BME280;7281;42.678;23.372;2023-02-10T13:39:21;61859.38;;;-140.05;100.00
14393;BME280;7281;42.678;23.372;2023-02-10T13:42:25;61859.38;;;-140.05;100.00
14393;BME280;7281;42.678;23.372;2023-02-10T13:45:29;61859.38;;;-140.05;100.00
14393;BME280;7281;42.678;23.372;2023-02-10T13:48:02;61859.38;;;-140.05;100.00
14393;BME280;7281;42.678;23.372;2023-02-10T13:50:46;61859.38;;;-140.05;100.00
14393;BME280;7281;42.678;23.372;2023-02-10T14:01:38;61859.38;;;-140.05;100.00
14393;BME280;7281;42.678;23.372;2023-02-10T14:06:49;61859.38;;;-140.05;100.00
14393;BME280;7281;42.678;23.372;2023-02-10T14:11:58;61859.38;;;-140.05;100.00
14393;BME280;7281;42.678;23.372;2023-02-10T14:17:25;61859.38;;;-140.05;100.00
14393;BME280;7281;42.678;23.372;2023-02-10T14:19:57;61859.38;;;-140.05;100.00
14393;BME280;7281;42.678;23.372;2023-02-10T14:22:32;61859.38;;;-140.05;100.00
14393;BME280;7281;42.678;23.372;2023-02-10T14:27:50;61859.38;;;-140.05;100.00
14393;BME280;7281;42.678;23.372;2023-02-10T14:30:24;61859.38;;;-140.05;100.00
14393;BME280;7281;42.678;23.372;2023-02-10T14:32:53;61859.38;;;-140.05;100.00
14393;BME280;7281;42.678;23.372;2023-02-10T14:35:23;61859.38;;;-140.05;100.00
14393;BME280;7281;42.678;23.372;2023-02-10T14:37:57;61859.38;;;-140.05;100.00
14393;BME280;7281;42.678;23.372;2023-02-10T14:40:26;61859.38;;;-140.05;100.00
14393;BME280;7281;42.678;23.372;2023-02-10T14:42:54;61859.38;;;-140.05;100.00
14393;BME280;7281;42.678;23.372;2023-02-10T14:45:23;61859.38;;;-140.05;100.00
14393;BME280;7281;42.678;23.372;2023-02-10T14:47:54;61859.38;;;-140.05;100.00
14393;BME280;7281;42.678;23.372;2023-02-10T14:50:32;61859.38;;;-140.05;100.00
14393;BME280;7281;42.678;23.372;2023-02-10T14:53:01;61859.38;;;-140.05;100.00
14393;BME280;7281;42.678;23.372;2023-02-10T14:58:14;61859.38;;;-140.05;100.00